sensor_id;sensor_type;location;lat;lon;timestamp;pressure;altitude;pressure_sealevel;temperature;humidity
38630;BME280;24384;51.988;4.644;2023-03-01T00:01:17;103387.22;;;0.93;74.41
38630;BME280;24384;51.988;4.644;2023-03-01T00:03:43;103378.91;;;0.82;75.16
38630;BME280;24384;51.988;4.644;2023-03-01T00:06:09;103374.34;;;0.76;74.92
38630;BME280;24384;51.988;4.644;2023-03-01T00:08:34;103370.75;;;0.74;75.46
38630;BME280;24384;51.988;4.644;2023-03-01T00:11:13;103371.53;;;0.71;74.65
38630;BME280;24384;51.988;4.644;2023-03-01T00:13:39;103372.69;;;0.60;75.54
38630;BME280;24384;51.988;4.644;2023-03-01T00:16:07;103366.19;;;0.68;75.80
38630;BME280;24384;51.988;4.644;2023-03-01T00:18:33;103365.56;;;0.74;75.10
38630;BME280;24384;51.988;4.644;2023-03-01T00:20:59;103358.44;;;0.88;75.31
38630;BME280;24384;51.988;4.644;2023-03-01T00:23:24;103361.19;;;0.73;76.26
38630;BME280;24384;51.988;4.644;2023-03-01T00:25:50;103356.22;;;0.78;75.90
38630;BME280;24384;51.988;4.644;2023-03-01T00:28:16;103358.53;;;0.71;76.05
38630;BME280;24384;51.988;4.644;2023-03-01T00:30:42;103363.44;;;0.65;76.11
38630;BME280;24384;51.988;4.644;2023-03-01T00:33:07;103363.78;;;0.55;76.72
38630;BME280;24384;51.988;4.644;2023-03-01T00:35:33;103364.47;;;0.69;76.12
38630;BME280;24384;51.988;4.644;2023-03-01T00:37:58;103357.31;;;0.65;76.62
38630;BME280;24384;51.988;4.644;2023-03-01T00:40:25;103355.78;;;0.68;76.81
38630;BME280;24384;51.988;4.644;2023-03-01T00:42:50;103358.75;;;0.58;77.01
38630;BME280;24384;51.988;4.644;2023-03-01T00:45:15;103359.94;;;0.47;77.91
38630;BME280;24384;51.988;4.644;2023-03-01T00:47:41;103350.34;;;0.46;77.11
38630;BME280;24384;51.988;4.644;2023-03-01T00:50:07;103352.66;;;0.40;77.60
38630;BME280;24384;51.988;4.644;2023-03-01T00:52:33;103359.78;;;0.44;77.13
38630;BME280;24384;51.988;4.644;2023-03-01T00:54:58;103366.09;;;0.49;77.05
38630;BME280;24384;51.988;4.644;2023-03-01T00:57:23;103355.63;;;0.47;76.95
38630;BME280;24384;51.988;4.644;2023-03-01T00:59:49;103348.06;;;0.52;76.67
38630;BME280;24384;51.988;4.644;2023-03-01T01:02:14;103351.75;;;0.57;76.82
38630;BME280;24384;51.988;4.644;2023-03-01T01:04:39;103351.31;;;0.48;77.23
38630;BME280;24384;51.988;4.644;2023-03-01T01:07:04;103344.28;;;0.45;77.30
38630;BME280;24384;51.988;4.644;2023-03-01T01:09:30;103350.34;;;0.46;77.31
38630;BME280;24384;51.988;4.644;2023-03-01T01:11:56;103352.88;;;0.44;77.65
38630;BME280;24384;51.988;4.644;2023-03-01T01:14:21;103358.44;;;0.52;77.05
38630;BME280;24384;51.988;4.644;2023-03-01T01:16:46;103354.91;;;0.50;76.46
38630;BME280;24384;51.988;4.644;2023-03-01T01:19:12;103354.13;;;0.52;77.11
38630;BME280;24384;51.988;4.644;2023-03-01T01:21:38;103342.56;;;0.46;77.82
38630;BME280;24384;51.988;4.644;2023-03-01T01:24:04;103338.25;;;0.28;79.18
38630;BME280;24384;51.988;4.644;2023-03-01T01:26:32;103337.66;;;0.34;78.59
38630;BME280;24384;51.988;4.644;2023-03-01T01:28:59;103337.22;;;0.43;78.01
38630;BME280;24384;51.988;4.644;2023-03-01T01:31:26;103329.88;;;0.34;77.48
38630;BME280;24384;51.988;4.644;2023-03-01T01:33:52;103323.28;;;0.41;77.44
38630;BME280;24384;51.988;4.644;2023-03-01T01:36:18;103320.91;;;0.27;79.06
38630;BME280;24384;51.988;4.644;2023-03-01T01:38:43;103310.66;;;0.30;78.55
38630;BME280;24384;51.988;4.644;2023-03-01T01:41:11;103317.94;;;0.38;77.50
38630;BME280;24384;51.988;4.644;2023-03-01T01:43:42;103305.91;;;0.40;77.42
38630;BME280;24384;51.988;4.644;2023-03-01T01:46:21;103295.22;;;0.33;78.15
38630;BME280;24384;51.988;4.644;2023-03-01T01:49:38;103298.63;;;0.32;77.90
38630;BME280;24384;51.988;4.644;2023-03-01T01:52:30;103287.22;;;0.29;78.31
38630;BME280;24384;51.988;4.644;2023-03-01T01:55:04;103292.03;;;0.21;78.89
38630;BME280;24384;51.988;4.644;2023-03-01T01:57:38;103292.03;;;0.21;79.45
38630;BME280;24384;51.988;4.644;2023-03-01T02:00:11;103289.00;;;0.30;78.42
38630;BME280;24384;51.988;4.644;2023-03-01T02:02:38;103287.94;;;0.26;79.08
38630;BME280;24384;51.988;4.644;2023-03-01T02:05:12;103295.06;;;0.12;79.71
38630;BME280;24384;51.988;4.644;2023-03-01T02:07:40;103290.94;;;0.16;80.11
38630;BME280;24384;51.988;4.644;2023-03-01T02:10:07;103294.25;;;0.13;80.95
38630;BME280;24384;51.988;4.644;2023-03-01T02:12:33;103293.97;;;0.07;80.08
38630;BME280;24384;51.988;4.644;2023-03-01T02:14:59;103289.34;;;0.02;80.87
38630;BME280;24384;51.988;4.644;2023-03-01T02:17:24;103296.13;;;0.16;79.85
38630;BME280;24384;51.988;4.644;2023-03-01T02:20:16;103272.91;;;0.19;79.58
38630;BME280;24384;51.988;4.644;2023-03-01T02:22:46;103279.78;;;0.18;79.60
38630;BME280;24384;51.988;4.644;2023-03-01T02:30:36;103278.31;;;0.06;80.07
38630;BME280;24384;51.988;4.644;2023-03-01T02:33:03;103281.72;;;-0.13;80.52
38630;BME280;24384;51.988;4.644;2023-03-01T02:35:35;103277.56;;;-0.10;80.21
38630;BME280;24384;51.988;4.644;2023-03-01T02:38:03;103273.31;;;-0.26;80.19
38630;BME280;24384;51.988;4.644;2023-03-01T02:40:33;103280.44;;;-0.22;79.51
38630;BME280;24384;51.988;4.644;2023-03-01T02:42:58;103281.88;;;-0.27;79.95
38630;BME280;24384;51.988;4.644;2023-03-01T02:45:26;103273.38;;;-0.24;79.48
38630;BME280;24384;51.988;4.644;2023-03-01T02:47:55;103276.31;;;-0.34;79.51
38630;BME280;24384;51.988;4.644;2023-03-01T02:50:41;103271.00;;;-0.54;79.24
38630;BME280;24384;51.988;4.644;2023-03-01T02:53:27;103262.09;;;-0.59;79.26
38630;BME280;24384;51.988;4.644;2023-03-01T02:55:57;103261.59;;;-0.68;79.82
38630;BME280;24384;51.988;4.644;2023-03-01T02:58:24;103265.16;;;-0.50;79.25
38630;BME280;24384;51.988;4.644;2023-03-01T03:00:50;103257.13;;;-0.55;79.39
38630;BME280;24384;51.988;4.644;2023-03-01T03:03:19;103266.63;;;-0.55;80.46
38630;BME280;24384;51.988;4.644;2023-03-01T03:05:46;103263.25;;;-0.54;79.95
38630;BME280;24384;51.988;4.644;2023-03-01T03:08:11;103250.53;;;-0.66;80.05
38630;BME280;24384;51.988;4.644;2023-03-01T03:10:40;103246.97;;;-0.68;81.00
38630;BME280;24384;51.988;4.644;2023-03-01T03:13:08;103244.63;;;-0.63;80.47
38630;BME280;24384;51.988;4.644;2023-03-01T03:15:34;103244.25;;;-0.53;80.37
38630;BME280;24384;51.988;4.644;2023-03-01T03:18:02;103245.00;;;-0.56;80.44
38630;BME280;24384;51.988;4.644;2023-03-01T03:20:29;103247.28;;;-0.62;80.70
38630;BME280;24384;51.988;4.644;2023-03-01T03:22:56;103249.69;;;-0.48;80.58
38630;BME280;24384;51.988;4.644;2023-03-01T03:25:23;103241.34;;;-0.59;82.01
38630;BME280;24384;51.988;4.644;2023-03-01T03:27:50;103246.19;;;-0.49;80.52
38630;BME280;24384;51.988;4.644;2023-03-01T03:30:23;103245.88;;;-0.55;81.25
38630;BME280;24384;51.988;4.644;2023-03-01T03:32:49;103248.16;;;-0.61;81.30
38630;BME280;24384;51.988;4.644;2023-03-01T03:35:22;103244.09;;;-0.56;80.74
38630;BME280;24384;51.988;4.644;2023-03-01T03:37:49;103241.44;;;-0.58;81.28
38630;BME280;24384;51.988;4.644;2023-03-01T03:40:34;103239.75;;;-0.57;81.40
38630;BME280;24384;51.988;4.644;2023-03-01T03:43:01;103244.19;;;-0.55;80.47
38630;BME280;24384;51.988;4.644;2023-03-01T03:45:26;103235.59;;;-0.70;80.38
38630;BME280;24384;51.988;4.644;2023-03-01T03:47:52;103233.84;;;-0.71;81.66
38630;BME280;24384;51.988;4.644;2023-03-01T03:50:17;103234.88;;;-0.67;81.91
38630;BME280;24384;51.988;4.644;2023-03-01T03:52:43;103232.69;;;-0.76;82.28
38630;BME280;24384;51.988;4.644;2023-03-01T03:55:11;103227.91;;;-0.68;82.62
38630;BME280;24384;51.988;4.644;2023-03-01T03:57:40;103228.47;;;-0.58;82.78
38630;BME280;24384;51.988;4.644;2023-03-01T04:00:11;103229.16;;;-0.62;82.37
38630;BME280;24384;51.988;4.644;2023-03-01T04:02:40;103225.88;;;-0.58;82.83
38630;BME280;24384;51.988;4.644;2023-03-01T04:05:06;103227.19;;;-0.66;82.81
38630;BME280;24384;51.988;4.644;2023-03-01T04:07:33;103223.81;;;-0.65;82.48
38630;BME280;24384;51.988;4.644;2023-03-01T04:09:58;103226.47;;;-0.63;83.00
38630;BME280;24384;51.988;4.644;2023-03-01T04:12:24;103224.59;;;-0.66;83.65
38630;BME280;24384;51.988;4.644;2023-03-01T04:14:49;103232.84;;;-0.73;83.85
38630;BME280;24384;51.988;4.644;2023-03-01T04:17:14;103226.56;;;-0.62;83.58
38630;BME280;24384;51.988;4.644;2023-03-01T04:19:39;103232.94;;;-0.72;83.95
38630;BME280;24384;51.988;4.644;2023-03-01T04:22:05;103228.81;;;-0.68;84.29
38630;BME280;24384;51.988;4.644;2023-03-01T04:24:35;103229.38;;;-0.74;84.81
38630;BME280;24384;51.988;4.644;2023-03-01T04:27:00;103227.28;;;-0.64;84.50
38630;BME280;24384;51.988;4.644;2023-03-01T04:29:25;103225.69;;;-0.79;84.76
38630;BME280;24384;51.988;4.644;2023-03-01T04:31:50;103222.59;;;-0.88;84.33
38630;BME280;24384;51.988;4.644;2023-03-01T04:34:15;103217.97;;;-0.77;83.94
38630;BME280;24384;51.988;4.644;2023-03-01T04:36:41;103224.44;;;-0.85;83.59
38630;BME280;24384;51.988;4.644;2023-03-01T04:39:06;103220.50;;;-0.95;83.30
38630;BME280;24384;51.988;4.644;2023-03-01T04:41:37;103222.59;;;-1.04;83.37
38630;BME280;24384;51.988;4.644;2023-03-01T04:44:04;103216.94;;;-1.14;83.69
38630;BME280;24384;51.988;4.644;2023-03-01T04:46:30;103211.59;;;-1.17;83.13
38630;BME280;24384;51.988;4.644;2023-03-01T04:48:56;103213.31;;;-1.17;82.64
38630;BME280;24384;51.988;4.644;2023-03-01T04:51:21;103210.59;;;-1.35;81.88
38630;BME280;24384;51.988;4.644;2023-03-01T04:53:47;103211.31;;;-1.38;82.27
38630;BME280;24384;51.988;4.644;2023-03-01T04:56:13;103195.06;;;-1.35;82.10
38630;BME280;24384;51.988;4.644;2023-03-01T04:58:39;103206.88;;;-1.40;82.70
38630;BME280;24384;51.988;4.644;2023-03-01T05:01:11;103194.41;;;-1.48;82.66
38630;BME280;24384;51.988;4.644;2023-03-01T05:03:41;103196.81;;;-1.51;81.69
38630;BME280;24384;51.988;4.644;2023-03-01T05:06:07;103192.69;;;-1.64;81.94
38630;BME280;24384;51.988;4.644;2023-03-01T05:08:32;103184.66;;;-1.68;81.65
38630;BME280;24384;51.988;4.644;2023-03-01T05:10:59;103185.34;;;-1.56;80.87
38630;BME280;24384;51.988;4.644;2023-03-01T05:13:24;103189.69;;;-1.71;80.87
38630;BME280;24384;51.988;4.644;2023-03-01T05:15:59;103189.34;;;-1.77;81.00
38630;BME280;24384;51.988;4.644;2023-03-01T05:18:25;103187.72;;;-1.75;80.76
38630;BME280;24384;51.988;4.644;2023-03-01T05:20:52;103179.53;;;-1.83;80.66
38630;BME280;24384;51.988;4.644;2023-03-01T05:23:21;103189.63;;;-1.88;81.80
38630;BME280;24384;51.988;4.644;2023-03-01T05:25:46;103189.53;;;-1.89;82.13
38630;BME280;24384;51.988;4.644;2023-03-01T05:28:12;103171.16;;;-1.79;81.94
38630;BME280;24384;51.988;4.644;2023-03-01T05:30:37;103167.13;;;-1.89;82.27
38630;BME280;24384;51.988;4.644;2023-03-01T05:33:06;103167.78;;;-1.93;81.87
38630;BME280;24384;51.988;4.644;2023-03-01T05:35:35;103161.50;;;-1.82;81.99
38630;BME280;24384;51.988;4.644;2023-03-01T05:38:01;103150.38;;;-1.81;81.99
38630;BME280;24384;51.988;4.644;2023-03-01T05:40:26;103152.69;;;-1.85;82.35
38630;BME280;24384;51.988;4.644;2023-03-01T05:42:56;103143.84;;;-1.89;82.27
38630;BME280;24384;51.988;4.644;2023-03-01T05:45:23;103141.00;;;-1.93;82.97
38630;BME280;24384;51.988;4.644;2023-03-01T05:47:49;103140.13;;;-1.94;82.23
38630;BME280;24384;51.988;4.644;2023-03-01T05:52:45;103136.25;;;-2.02;79.96
38630;BME280;24384;51.988;4.644;2023-03-01T05:55:10;103153.41;;;-2.34;80.36
38630;BME280;24384;51.988;4.644;2023-03-01T05:57:35;103145.38;;;-2.24;80.36
38630;BME280;24384;51.988;4.644;2023-03-01T06:00:01;103137.56;;;-2.40;80.51
38630;BME280;24384;51.988;4.644;2023-03-01T06:02:26;103139.16;;;-2.42;81.33
38630;BME280;24384;51.988;4.644;2023-03-01T06:04:52;103150.03;;;-2.33;81.60
38630;BME280;24384;51.988;4.644;2023-03-01T06:07:17;103143.25;;;-2.31;81.29
38630;BME280;24384;51.988;4.644;2023-03-01T06:09:42;103152.00;;;-2.59;78.76
38630;BME280;24384;51.988;4.644;2023-03-01T06:12:08;103158.19;;;-3.00;79.67
38630;BME280;24384;51.988;4.644;2023-03-01T06:14:33;103156.78;;;-2.95;80.09
38630;BME280;24384;51.988;4.644;2023-03-01T06:16:58;103157.91;;;-3.19;81.85
38630;BME280;24384;51.988;4.644;2023-03-01T06:19:25;103160.66;;;-3.16;83.19
38630;BME280;24384;51.988;4.644;2023-03-01T06:21:50;103162.97;;;-3.06;83.88
38630;BME280;24384;51.988;4.644;2023-03-01T06:24:16;103159.28;;;-2.96;82.93
38630;BME280;24384;51.988;4.644;2023-03-01T06:26:41;103162.69;;;-2.82;82.92
38630;BME280;24384;51.988;4.644;2023-03-01T06:29:07;103163.31;;;-2.72;81.53
38630;BME280;24384;51.988;4.644;2023-03-01T06:31:33;103172.47;;;-2.92;79.71
38630;BME280;24384;51.988;4.644;2023-03-01T06:33:59;103161.59;;;-3.01;79.92
38630;BME280;24384;51.988;4.644;2023-03-01T06:36:24;103166.13;;;-2.97;81.43
38630;BME280;24384;51.988;4.644;2023-03-01T06:38:49;103165.00;;;-2.72;80.69
38630;BME280;24384;51.988;4.644;2023-03-01T06:41:14;103162.13;;;-2.77;79.23
38630;BME280;24384;51.988;4.644;2023-03-01T06:43:40;103165.88;;;-2.86;80.61
38630;BME280;24384;51.988;4.644;2023-03-01T06:46:05;103158.13;;;-2.86;80.30
38630;BME280;24384;51.988;4.644;2023-03-01T06:48:32;103170.97;;;-2.73;80.55
38630;BME280;24384;51.988;4.644;2023-03-01T06:50:59;103172.75;;;-2.72;79.68
38630;BME280;24384;51.988;4.644;2023-03-01T06:53:26;103169.25;;;-2.88;78.81
38630;BME280;24384;51.988;4.644;2023-03-01T06:55:57;103168.84;;;-2.65;80.53
38630;BME280;24384;51.988;4.644;2023-03-01T06:58:24;103165.09;;;-2.56;81.18
38630;BME280;24384;51.988;4.644;2023-03-01T07:00:49;103162.13;;;-2.32;81.00
38630;BME280;24384;51.988;4.644;2023-03-01T07:03:14;103160.06;;;-2.23;79.84
38630;BME280;24384;51.988;4.644;2023-03-01T07:05:40;103164.78;;;-2.16;79.27
38630;BME280;24384;51.988;4.644;2023-03-01T07:08:05;103168.59;;;-1.94;78.41
38630;BME280;24384;51.988;4.644;2023-03-01T07:10:30;103155.13;;;-2.03;78.51
38630;BME280;24384;51.988;4.644;2023-03-01T07:12:57;103161.19;;;-2.03;78.96
38630;BME280;24384;51.988;4.644;2023-03-01T07:15:22;103166.19;;;-2.06;80.63
38630;BME280;24384;51.988;4.644;2023-03-01T07:17:48;103161.34;;;-1.85;81.23
38630;BME280;24384;51.988;4.644;2023-03-01T07:20:16;103161.94;;;-1.74;81.88
38630;BME280;24384;51.988;4.644;2023-03-01T07:22:41;103166.06;;;-1.61;81.42
38630;BME280;24384;51.988;4.644;2023-03-01T07:25:08;103167.94;;;-1.58;81.06
38630;BME280;24384;51.988;4.644;2023-03-01T07:27:33;103158.34;;;-1.45;81.30
38630;BME280;24384;51.988;4.644;2023-03-01T07:29:58;103161.91;;;-1.26;81.44
38630;BME280;24384;51.988;4.644;2023-03-01T07:32:24;103166.16;;;-1.10;81.61
38630;BME280;24384;51.988;4.644;2023-03-01T07:34:50;103164.63;;;-0.90;82.06
38630;BME280;24384;51.988;4.644;2023-03-01T07:37:16;103162.81;;;-0.75;82.29
38630;BME280;24384;51.988;4.644;2023-03-01T07:39:41;103169.31;;;-0.48;81.93
38630;BME280;24384;51.988;4.644;2023-03-01T07:42:07;103165.19;;;-0.27;81.96
38630;BME280;24384;51.988;4.644;2023-03-01T07:44:32;103161.94;;;-0.05;81.08
38630;BME280;24384;51.988;4.644;2023-03-01T07:47:00;103161.25;;;-0.01;81.02
38630;BME280;24384;51.988;4.644;2023-03-01T07:49:26;103159.94;;;0.45;78.96
38630;BME280;24384;51.988;4.644;2023-03-01T07:51:52;103157.53;;;0.50;79.72
38630;BME280;24384;51.988;4.644;2023-03-01T07:54:17;103161.03;;;0.70;79.79
38630;BME280;24384;51.988;4.644;2023-03-01T07:56:43;103158.91;;;0.61;80.69
38630;BME280;24384;51.988;4.644;2023-03-01T07:59:08;103152.06;;;0.83;80.95
38630;BME280;24384;51.988;4.644;2023-03-01T08:01:33;103162.16;;;1.16;80.69
38630;BME280;24384;51.988;4.644;2023-03-01T08:03:59;103157.50;;;1.49;80.42
38630;BME280;24384;51.988;4.644;2023-03-01T08:06:24;103164.81;;;1.58;80.10
38630;BME280;24384;51.988;4.644;2023-03-01T08:08:49;103145.31;;;1.90;79.69
38630;BME280;24384;51.988;4.644;2023-03-01T08:11:15;103145.59;;;2.21;78.69
38630;BME280;24384;51.988;4.644;2023-03-01T08:13:41;103150.81;;;2.43;78.03
38630;BME280;24384;51.988;4.644;2023-03-01T08:16:09;103148.19;;;2.66;77.05
38630;BME280;24384;51.988;4.644;2023-03-01T08:18:35;103132.94;;;3.02;76.38
38630;BME280;24384;51.988;4.644;2023-03-01T08:21:05;103147.09;;;3.35;75.23
38630;BME280;24384;51.988;4.644;2023-03-01T08:23:30;103146.09;;;3.57;74.46
38630;BME280;24384;51.988;4.644;2023-03-01T08:26:03;103143.63;;;3.89;73.41
38630;BME280;24384;51.988;4.644;2023-03-01T08:28:29;103135.81;;;4.18;72.35
38630;BME280;24384;51.988;4.644;2023-03-01T08:30:54;103135.31;;;4.29;70.19
38630;BME280;24384;51.988;4.644;2023-03-01T08:33:19;103142.91;;;4.52;69.01
38630;BME280;24384;51.988;4.644;2023-03-01T08:35:45;103139.13;;;4.71;68.16
38630;BME280;24384;51.988;4.644;2023-03-01T08:38:10;103130.22;;;4.96;66.96
38630;BME280;24384;51.988;4.644;2023-03-01T08:40:35;103136.59;;;5.08;66.59
38630;BME280;24384;51.988;4.644;2023-03-01T08:43:00;103126.41;;;5.18;65.56
38630;BME280;24384;51.988;4.644;2023-03-01T08:45:26;103116.41;;;5.37;63.11
38630;BME280;24384;51.988;4.644;2023-03-01T08:47:52;103124.88;;;5.62;62.76
38630;BME280;24384;51.988;4.644;2023-03-01T08:50:18;103122.63;;;5.77;61.49
38630;BME280;24384;51.988;4.644;2023-03-01T08:52:43;103125.44;;;5.86;60.85
38630;BME280;24384;51.988;4.644;2023-03-01T08:55:09;103116.19;;;6.01;58.59
38630;BME280;24384;51.988;4.644;2023-03-01T08:57:34;103121.44;;;6.01;59.18
38630;BME280;24384;51.988;4.644;2023-03-01T08:59:59;103120.13;;;6.20;58.56
38630;BME280;24384;51.988;4.644;2023-03-01T09:02:25;103114.41;;;6.39;57.61
38630;BME280;24384;51.988;4.644;2023-03-01T09:04:50;103106.69;;;6.47;57.29
38630;BME280;24384;51.988;4.644;2023-03-01T09:07:15;103106.38;;;6.74;55.76
38630;BME280;24384;51.988;4.644;2023-03-01T09:09:41;103108.59;;;7.00;53.94
38630;BME280;24384;51.988;4.644;2023-03-01T09:12:06;103100.03;;;7.12;54.49
38630;BME280;24384;51.988;4.644;2023-03-01T09:14:32;103096.72;;;7.22;52.83
38630;BME280;24384;51.988;4.644;2023-03-01T09:16:58;103097.09;;;7.44;52.37
38630;BME280;24384;51.988;4.644;2023-03-01T09:19:23;103086.81;;;7.58;53.42
38630;BME280;24384;51.988;4.644;2023-03-01T09:21:48;103091.31;;;7.66;50.95
38630;BME280;24384;51.988;4.644;2023-03-01T09:24:22;103087.16;;;7.81;52.60
38630;BME280;24384;51.988;4.644;2023-03-01T09:26:48;103078.34;;;7.77;49.42
38630;BME280;24384;51.988;4.644;2023-03-01T09:29:15;103080.16;;;7.83;51.11
38630;BME280;24384;51.988;4.644;2023-03-01T09:31:41;103079.47;;;7.96;50.83
38630;BME280;24384;51.988;4.644;2023-03-01T09:34:07;103074.50;;;8.18;50.50
38630;BME280;24384;51.988;4.644;2023-03-01T09:36:33;103077.22;;;8.25;50.93
38630;BME280;24384;51.988;4.644;2023-03-01T09:39:00;103075.56;;;8.34;50.40
38630;BME280;24384;51.988;4.644;2023-03-01T09:43:57;103083.03;;;8.72;47.02
38630;BME280;24384;51.988;4.644;2023-03-01T09:46:25;103075.25;;;8.81;49.14
38630;BME280;24384;51.988;4.644;2023-03-01T09:48:56;103079.78;;;8.94;48.05
38630;BME280;24384;51.988;4.644;2023-03-01T09:51:33;103069.44;;;9.14;48.06
38630;BME280;24384;51.988;4.644;2023-03-01T09:54:02;103071.22;;;9.23;47.72
38630;BME280;24384;51.988;4.644;2023-03-01T09:56:33;103076.56;;;9.32;46.43
38630;BME280;24384;51.988;4.644;2023-03-01T09:59:20;103064.41;;;9.45;47.36
38630;BME280;24384;51.988;4.644;2023-03-01T10:01:59;103055.69;;;9.57;44.55
38630;BME280;24384;51.988;4.644;2023-03-01T10:04:27;103058.38;;;9.66;44.33
38630;BME280;24384;51.988;4.644;2023-03-01T10:09:55;103060.22;;;9.80;44.38
38630;BME280;24384;51.988;4.644;2023-03-01T10:12:25;103055.06;;;10.04;47.05
38630;BME280;24384;51.988;4.644;2023-03-01T10:17:38;103053.53;;;10.67;45.65
38630;BME280;24384;51.988;4.644;2023-03-01T10:20:18;103051.78;;;10.89;43.80
38630;BME280;24384;51.988;4.644;2023-03-01T10:22:44;103043.00;;;11.10;45.14
38630;BME280;24384;51.988;4.644;2023-03-01T10:25:23;103037.72;;;11.42;43.61
38630;BME280;24384;51.988;4.644;2023-03-01T10:27:54;103041.16;;;11.66;42.35
38630;BME280;24384;51.988;4.644;2023-03-01T10:30:41;103036.72;;;11.88;42.02
38630;BME280;24384;51.988;4.644;2023-03-01T10:33:17;103032.28;;;11.99;41.56
38630;BME280;24384;51.988;4.644;2023-03-01T10:35:44;103028.59;;;12.38;44.46
38630;BME280;24384;51.988;4.644;2023-03-01T10:38:12;103016.88;;;12.71;42.81
38630;BME280;24384;51.988;4.644;2023-03-01T10:43:15;103026.38;;;13.01;41.88
38630;BME280;24384;51.988;4.644;2023-03-01T10:45:41;103015.50;;;13.32;40.06
38630;BME280;24384;51.988;4.644;2023-03-01T10:50:40;103014.25;;;13.69;37.98
38630;BME280;24384;51.988;4.644;2023-03-01T10:53:22;103007.28;;;14.30;35.87
38630;BME280;24384;51.988;4.644;2023-03-01T10:55:58;103000.16;;;14.91;39.07
38630;BME280;24384;51.988;4.644;2023-03-01T10:58:23;102993.63;;;15.11;35.95
38630;BME280;24384;51.988;4.644;2023-03-01T11:03:23;102975.88;;;16.42;34.22
38630;BME280;24384;51.988;4.644;2023-03-01T11:05:58;102974.13;;;17.13;32.18
38630;BME280;24384;51.988;4.644;2023-03-01T11:08:41;102969.44;;;17.84;32.28
38630;BME280;24384;51.988;4.644;2023-03-01T11:13:48;102954.97;;;19.28;26.46
38630;BME280;24384;51.988;4.644;2023-03-01T11:16:14;102950.00;;;19.66;24.47
38630;BME280;24384;51.988;4.644;2023-03-01T11:18:41;102938.69;;;20.06;24.45
38630;BME280;24384;51.988;4.644;2023-03-01T11:21:07;102931.97;;;20.82;25.73
38630;BME280;24384;51.988;4.644;2023-03-01T11:23:34;102930.63;;;21.53;24.99
38630;BME280;24384;51.988;4.644;2023-03-01T11:26:08;102918.59;;;22.53;23.19
38630;BME280;24384;51.988;4.644;2023-03-01T11:28:37;102931.28;;;21.18;21.65
38630;BME280;24384;51.988;4.644;2023-03-01T11:31:07;102932.00;;;21.80;21.65
38630;BME280;24384;51.988;4.644;2023-03-01T11:33:47;102919.34;;;23.75;23.50
38630;BME280;24384;51.988;4.644;2023-03-01T11:38:49;102920.97;;;24.72;17.25
38630;BME280;24384;51.988;4.644;2023-03-01T11:41:25;102910.84;;;25.76;18.20
38630;BME280;24384;51.988;4.644;2023-03-01T11:44:01;102916.63;;;25.99;16.56
38630;BME280;24384;51.988;4.644;2023-03-01T11:51:53;102902.13;;;27.44;19.00
38630;BME280;24384;51.988;4.644;2023-03-01T11:54:27;102900.94;;;26.31;19.33
38630;BME280;24384;51.988;4.644;2023-03-01T11:56:57;102895.94;;;26.65;15.80
38630;BME280;24384;51.988;4.644;2023-03-01T12:00:32;102889.84;;;26.08;18.61
38630;BME280;24384;51.988;4.644;2023-03-01T12:05:24;102888.69;;;28.64;15.99
38630;BME280;24384;51.988;4.644;2023-03-01T12:11:23;102886.34;;;26.87;14.46
38630;BME280;24384;51.988;4.644;2023-03-01T12:16:58;102878.56;;;27.58;16.17
38630;BME280;24384;51.988;4.644;2023-03-01T12:22:29;102862.19;;;28.32;14.71
38630;BME280;24384;51.988;4.644;2023-03-01T12:27:55;102841.81;;;28.26;14.18
38630;BME280;24384;51.988;4.644;2023-03-01T12:31:29;102841.56;;;28.99;18.05
38630;BME280;24384;51.988;4.644;2023-03-01T12:33:56;102845.19;;;28.41;22.91
38630;BME280;24384;51.988;4.644;2023-03-01T12:44:24;102841.28;;;24.66;18.62
38630;BME280;24384;51.988;4.644;2023-03-01T12:49:41;102840.84;;;22.14;19.30
38630;BME280;24384;51.988;4.644;2023-03-01T12:54:35;102843.06;;;22.76;23.69
38630;BME280;24384;51.988;4.644;2023-03-01T13:04:57;102845.06;;;20.86;22.70
38630;BME280;24384;51.988;4.644;2023-03-01T13:07:28;102847.25;;;21.37;26.58
38630;BME280;24384;51.988;4.644;2023-03-01T13:09:59;102846.03;;;20.85;31.71
38630;BME280;24384;51.988;4.644;2023-03-01T13:15:24;102833.53;;;20.43;27.50
38630;BME280;24384;51.988;4.644;2023-03-01T13:17:50;102828.09;;;20.45;32.65
38630;BME280;24384;51.988;4.644;2023-03-01T13:20:17;102820.25;;;20.19;35.85
38630;BME280;24384;51.988;4.644;2023-03-01T13:22:43;102830.03;;;19.07;30.82
38630;BME280;24384;51.988;4.644;2023-03-01T13:25:11;102828.19;;;19.32;32.21
38630;BME280;24384;51.988;4.644;2023-03-01T13:27:38;102818.00;;;18.70;25.19
38630;BME280;24384;51.988;4.644;2023-03-01T13:30:03;102813.50;;;18.70;32.40
38630;BME280;24384;51.988;4.644;2023-03-01T13:32:34;102807.25;;;18.96;32.01
38630;BME280;24384;51.988;4.644;2023-03-01T13:37:42;102798.75;;;18.85;32.44
38630;BME280;24384;51.988;4.644;2023-03-01T13:42:51;102779.78;;;17.91;35.12
38630;BME280;24384;51.988;4.644;2023-03-01T13:45:19;102778.09;;;17.30;34.99
38630;BME280;24384;51.988;4.644;2023-03-01T13:47:45;102787.75;;;17.04;34.86
38630;BME280;24384;51.988;4.644;2023-03-01T13:50:18;102773.84;;;16.93;43.29
38630;BME280;24384;51.988;4.644;2023-03-01T13:52:55;102779.91;;;16.34;28.94
38630;BME280;24384;51.988;4.644;2023-03-01T13:55:27;102772.47;;;15.38;35.36
38630;BME280;24384;51.988;4.644;2023-03-01T13:57:58;102769.22;;;15.63;52.89
38630;BME280;24384;51.988;4.644;2023-03-01T14:00:30;102769.72;;;15.81;42.75
38630;BME280;24384;51.988;4.644;2023-03-01T14:05:36;102765.53;;;15.69;37.44
38630;BME280;24384;51.988;4.644;2023-03-01T14:08:05;102760.72;;;16.54;56.72
38630;BME280;24384;51.988;4.644;2023-03-01T14:10:40;102761.28;;;16.98;39.55
38630;BME280;24384;51.988;4.644;2023-03-01T14:19:00;102737.66;;;17.99;39.08
38630;BME280;24384;51.988;4.644;2023-03-01T14:21:29;102730.31;;;17.79;26.30
38630;BME280;24384;51.988;4.644;2023-03-01T14:23:55;102724.66;;;17.61;28.06
38630;BME280;24384;51.988;4.644;2023-03-01T14:26:21;102729.00;;;17.92;25.62